createdAt,value
2023-04-26T05:30:34.308Z,8.00
2023-04-26T05:37:56.468Z,10.80
2023-04-26T05:42:51.501Z,11.20
2023-04-26T05:47:47.624Z,12.40
2023-04-26T05:50:15.030Z,13.20
2023-04-26T05:52:42.226Z,14.10
2023-04-26T05:55:10.311Z,14.90
2023-04-26T05:57:40.440Z,15.20
2023-04-26T06:00:11.434Z,15.70
2023-04-26T06:02:38.824Z,14.40
2023-04-26T06:05:06.901Z,14.40
2023-04-26T06:07:37.320Z,14.90
2023-04-26T06:10:05.235Z,16.40
2023-04-26T06:15:01.370Z,16.00
2023-04-26T06:17:29.719Z,16.30
2023-04-26T06:19:57.135Z,16.90
2023-04-26T06:22:24.830Z,17.70
2023-04-26T06:24:52.186Z,17.90
2023-04-26T06:27:19.381Z,17.60
2023-04-26T06:29:47.875Z,17.80
2023-04-26T06:32:17.416Z,17.20
2023-04-26T06:34:45.719Z,18.50
2023-04-26T06:37:13.338Z,19.00
2023-04-26T06:39:40.646Z,19.70
2023-04-26T06:42:08.413Z,20.40
2023-04-26T06:44:36.057Z,20.40
2023-04-26T06:47:09.771Z,22.10
2023-04-26T06:49:37.678Z,19.90
2023-04-26T06:52:08.243Z,20.40
2023-04-26T06:54:45.936Z,20.40
2023-04-26T06:57:21.553Z,19.90
2023-04-26T06:59:49.039Z,20.80
2023-04-26T07:02:16.407Z,20.70
2023-04-26T07:04:44.612Z,21.10
2023-04-26T07:07:13.750Z,21.60
2023-04-26T07:09:41.218Z,21.30
2023-04-26T07:12:08.483Z,21.20
2023-04-26T07:14:40.579Z,22.70
2023-04-26T07:17:07.946Z,22.60
2023-04-26T07:19:35.762Z,23.60
2023-04-26T07:22:07.639Z,22.60
2023-04-26T07:24:35.358Z,18.10
2023-04-26T07:27:03.487Z,17.50
2023-04-26T07:29:30.724Z,17.50
2023-04-26T07:31:58.958Z,19.10
2023-04-26T07:34:27.915Z,20.30
2023-04-26T07:36:56.469Z,20.40
2023-04-26T07:39:25.222Z,19.00
2023-04-26T07:41:53.200Z,18.90
2023-04-26T07:44:21.228Z,18.60
2023-04-26T07:46:48.708Z,19.00
2023-04-26T07:49:16.400Z,18.70
2023-04-26T07:51:51.887Z,19.30
2023-04-26T07:54:22.441Z,20.70
2023-04-26T07:59:22.666Z,19.30
2023-04-26T08:04:35.106Z,20.10
2023-04-26T08:07:04.760Z,19.50
2023-04-26T08:12:01.989Z,18.80
2023-04-26T08:14:32.043Z,16.50
2023-04-26T08:17:02.944Z,15.00
2023-04-26T08:19:32.141Z,15.50
2023-04-26T08:22:02.329Z,14.70
2023-04-26T08:24:30.124Z,13.80
2023-04-26T08:29:28.689Z,14.00
2023-04-26T08:31:58.456Z,13.40
2023-04-26T08:34:27.654Z,12.60
2023-04-26T08:41:58.878Z,13.10
2023-04-26T08:47:21.742Z,15.80
2023-04-26T08:50:05.539Z,14.90
2023-04-26T08:52:33.315Z,15.00
2023-04-26T08:55:01.110Z,14.40
2023-04-26T08:57:33.898Z,14.00
2023-04-26T09:00:05.737Z,13.80
2023-04-26T09:02:34.579Z,13.70
2023-04-26T09:05:02.452Z,13.50
2023-04-26T09:07:42.430Z,12.80
2023-04-26T09:10:11.637Z,13.30
2023-04-26T09:12:40.405Z,12.70
2023-04-26T09:17:41.646Z,12.20
2023-04-26T09:20:30.105Z,13.00
2023-04-26T09:23:07.547Z,14.00
2023-04-26T09:28:04.242Z,14.40
2023-04-26T09:30:39.657Z,14.50
2023-04-26T09:33:09.659Z,14.50
2023-04-26T09:35:42.154Z,13.50
2023-04-26T09:38:15.813Z,13.30
2023-04-26T09:43:17.019Z,14.30
2023-04-26T09:48:23.350Z,14.50
2023-04-26T09:50:53.584Z,14.80
2023-04-26T09:53:37.468Z,14.90
2023-04-26T09:56:12.144Z,15.00
2023-04-26T09:58:58.151Z,15.10
2023-04-26T10:01:26.973Z,15.90
2023-04-26T10:03:57.110Z,17.60
2023-04-26T10:06:25.280Z,16.60
2023-04-26T10:08:52.879Z,16.20
2023-04-26T10:11:22.174Z,15.30
2023-04-26T10:13:52.110Z,15.30
2023-04-26T10:16:21.388Z,14.60
2023-04-26T10:18:49.574Z,14.30
2023-04-26T10:21:22.866Z,14.60
2023-04-26T10:26:49.070Z,14.20
2023-04-26T10:29:16.954Z,13.90
2023-04-26T10:32:10.925Z,14.00
2023-04-26T10:34:38.330Z,14.50
2023-04-26T10:37:23.607Z,15.10
2023-04-26T10:39:51.958Z,15.80
2023-04-26T10:42:24.018Z,15.70
2023-04-26T10:44:59.802Z,15.70
2023-04-26T10:47:28.498Z,15.30
2023-04-26T10:50:07.581Z,15.10
2023-04-26T10:52:43.419Z,14.20
2023-04-26T10:57:52.966Z,13.70
2023-04-26T11:00:32.349Z,13.80
2023-04-26T11:03:04.806Z,14.10
2023-04-26T11:05:54.583Z,14.60
2023-04-26T11:08:30.113Z,14.70
2023-04-26T11:10:57.567Z,15.70
2023-04-26T11:13:24.967Z,16.40
2023-04-26T11:16:00.248Z,15.80
2023-04-26T11:18:28.459Z,15.70
2023-04-26T11:20:56.229Z,16.00
2023-04-26T11:23:24.341Z,15.70
2023-04-26T11:25:51.768Z,16.00
2023-04-26T11:28:19.800Z,15.70
2023-04-26T11:30:48.728Z,15.40
2023-04-26T11:33:24.034Z,14.60
2023-04-26T11:35:55.750Z,14.70
2023-04-26T11:38:27.065Z,14.60
2023-04-26T11:41:02.310Z,14.50
2023-04-26T11:43:34.178Z,16.70
2023-04-26T11:46:02.009Z,15.10
2023-04-26T11:48:30.398Z,15.00
2023-04-26T11:51:01.247Z,15.40
2023-04-26T11:53:42.263Z,15.80
2023-04-26T11:56:20.485Z,15.70
2023-04-26T11:58:49.768Z,15.10
2023-04-26T12:01:24.733Z,15.80
2023-04-26T12:03:54.180Z,15.40
2023-04-26T12:06:41.924Z,15.60
2023-04-26T12:09:13.695Z,14.90
2023-04-26T12:11:41.387Z,15.00
2023-04-26T12:14:10.157Z,15.30
2023-04-26T12:19:09.767Z,14.20
2023-04-26T12:21:55.629Z,13.80
2023-04-26T12:24:34.167Z,13.60
2023-04-26T12:27:02.966Z,13.40
2023-04-26T12:29:32.082Z,14.80
2023-04-26T12:32:00.334Z,14.20
2023-04-26T12:34:27.933Z,14.10
2023-04-26T12:39:23.320Z,14.20
2023-04-26T12:41:50.514Z,14.40
2023-04-26T12:46:49.268Z,14.80
2023-04-26T12:49:17.538Z,15.20
2023-04-26T12:54:22.099Z,14.70
2023-04-26T13:01:47.925Z,14.10
2023-04-26T13:09:13.164Z,14.30
2023-04-26T13:11:42.063Z,14.20
2023-04-26T13:14:09.633Z,14.30
2023-04-26T13:16:38.864Z,14.80
2023-04-26T13:24:01.255Z,15.10
2023-04-26T13:26:28.415Z,14.80
2023-04-26T13:28:56.214Z,14.70
2023-04-26T13:38:48.879Z,15.00
2023-04-26T13:41:16.344Z,15.60
2023-04-26T13:46:11.102Z,15.60
2023-04-26T13:48:38.340Z,15.40
2023-04-26T13:51:06.988Z,15.70
2023-04-26T13:53:34.697Z,15.60
2023-04-26T14:00:56.999Z,15.50
2023-04-26T14:13:15.956Z,14.00
2023-04-26T14:18:11.413Z,14.20
2023-04-26T14:25:33.549Z,13.90
2023-04-26T14:28:01.745Z,13.40
2023-04-26T14:30:29.500Z,13.70
2023-04-26T14:32:56.677Z,13.40
2023-04-26T14:40:18.996Z,13.50
2023-04-26T14:42:46.357Z,13.60
2023-04-26T14:45:13.688Z,13.10
2023-04-26T14:47:40.974Z,13.80
2023-04-26T14:50:09.965Z,13.00
2023-04-26T14:52:37.334Z,12.90
2023-04-26T14:55:05.567Z,13.40
2023-04-26T15:00:07.304Z,13.00
2023-04-26T15:02:34.612Z,12.60
2023-04-26T15:22:19.153Z,12.20
2023-04-26T15:27:13.805Z,12.50
2023-04-26T15:29:40.972Z,12.70
2023-04-26T15:34:40.795Z,12.50
2023-04-26T15:37:08.037Z,12.50
2023-04-26T15:39:35.274Z,12.40
2023-04-26T15:42:02.556Z,12.50
2023-04-26T15:46:57.881Z,12.20
2023-04-26T15:49:25.732Z,11.90
2023-04-26T15:54:21.648Z,12.40
2023-04-26T15:59:16.556Z,12.70
